sensor_id;sensor_type;location;lat;lon;timestamp;P1;durP1;ratioP1;P2;durP2;ratioP2
58926;SDS011;44712;52.530;9.760;2022-08-14T00:00:17;10.88;;;9.52;;
58926;SDS011;44712;52.530;9.760;2022-08-14T00:02:45;13.20;;;9.68;;
58926;SDS011;44712;52.530;9.760;2022-08-14T00:05:15;11.32;;;10.05;;
58926;SDS011;44712;52.530;9.760;2022-08-14T00:07:44;13.70;;;9.68;;
58926;SDS011;44712;52.530;9.760;2022-08-14T00:10:14;12.20;;;10.23;;
58926;SDS011;44712;52.530;9.760;2022-08-14T00:13:02;12.13;;;10.88;;
58926;SDS011;44712;52.530;9.760;2022-08-14T00:15:37;12.93;;;10.90;;
58926;SDS011;44712;52.530;9.760;2022-08-14T00:18:10;12.98;;;10.52;;
58926;SDS011;44712;52.530;9.760;2022-08-14T00:21:03;14.45;;;10.75;;
58926;SDS011;44712;52.530;9.760;2022-08-14T00:23:36;13.27;;;10.68;;
58926;SDS011;44712;52.530;9.760;2022-08-14T00:26:04;15.27;;;10.85;;
58926;SDS011;44712;52.530;9.760;2022-08-14T00:28:34;14.13;;;10.68;;
58926;SDS011;44712;52.530;9.760;2022-08-14T00:34:09;15.15;;;11.65;;
58926;SDS011;44712;52.530;9.760;2022-08-14T00:36:56;14.13;;;11.40;;
58926;SDS011;44712;52.530;9.760;2022-08-14T00:39:24;13.73;;;11.30;;
58926;SDS011;44712;52.530;9.760;2022-08-14T00:41:51;15.10;;;11.35;;
58926;SDS011;44712;52.530;9.760;2022-08-14T00:44:18;14.02;;;11.00;;
58926;SDS011;44712;52.530;9.760;2022-08-14T00:46:57;13.32;;;11.95;;
58926;SDS011;44712;52.530;9.760;2022-08-14T00:49:26;14.05;;;12.05;;
58926;SDS011;44712;52.530;9.760;2022-08-14T00:51:55;13.23;;;10.38;;
58926;SDS011;44712;52.530;9.760;2022-08-14T00:54:23;14.23;;;11.82;;
58926;SDS011;44712;52.530;9.760;2022-08-14T00:56:51;15.30;;;11.80;;
58926;SDS011;44712;52.530;9.760;2022-08-14T00:59:22;14.50;;;11.75;;
58926;SDS011;44712;52.530;9.760;2022-08-14T01:01:55;15.20;;;12.65;;
58926;SDS011;44712;52.530;9.760;2022-08-14T01:04:24;14.20;;;11.60;;
58926;SDS011;44712;52.530;9.760;2022-08-14T01:07:16;16.15;;;11.65;;
58926;SDS011;44712;52.530;9.760;2022-08-14T01:09:58;15.82;;;12.10;;
58926;SDS011;44712;52.530;9.760;2022-08-14T01:12:30;15.18;;;11.13;;
58926;SDS011;44712;52.530;9.760;2022-08-14T01:15:06;15.85;;;11.68;;
58926;SDS011;44712;52.530;9.760;2022-08-14T01:17:35;14.23;;;11.77;;
58926;SDS011;44712;52.530;9.760;2022-08-14T01:20:20;16.02;;;12.43;;
58926;SDS011;44712;52.530;9.760;2022-08-14T01:23:07;14.77;;;12.02;;
58926;SDS011;44712;52.530;9.760;2022-08-14T01:25:47;14.43;;;11.65;;
58926;SDS011;44712;52.530;9.760;2022-08-14T01:28:18;14.25;;;11.23;;
58926;SDS011;44712;52.530;9.760;2022-08-14T01:31:08;17.63;;;12.30;;
58926;SDS011;44712;52.530;9.760;2022-08-14T01:33:39;13.30;;;11.90;;
58926;SDS011;44712;52.530;9.760;2022-08-14T01:36:29;15.05;;;11.80;;
58926;SDS011;44712;52.530;9.760;2022-08-14T01:39:03;15.02;;;12.00;;
58926;SDS011;44712;52.530;9.760;2022-08-14T01:41:39;16.50;;;12.45;;
58926;SDS011;44712;52.530;9.760;2022-08-14T01:44:12;15.43;;;11.25;;
58926;SDS011;44712;52.530;9.760;2022-08-14T01:47:00;14.00;;;12.32;;
58926;SDS011;44712;52.530;9.760;2022-08-14T01:49:47;17.02;;;12.65;;
58926;SDS011;44712;52.530;9.760;2022-08-14T01:52:30;15.35;;;12.35;;
58926;SDS011;44712;52.530;9.760;2022-08-14T01:55:17;15.18;;;11.95;;
58926;SDS011;44712;52.530;9.760;2022-08-14T01:57:45;13.75;;;11.82;;
58926;SDS011;44712;52.530;9.760;2022-08-14T02:00:27;14.82;;;12.27;;
58926;SDS011;44712;52.530;9.760;2022-08-14T02:03:01;16.55;;;12.23;;
58926;SDS011;44712;52.530;9.760;2022-08-14T02:05:27;14.63;;;11.80;;
58926;SDS011;44712;52.530;9.760;2022-08-14T02:08:01;15.68;;;12.60;;
58926;SDS011;44712;52.530;9.760;2022-08-14T02:10:36;15.38;;;12.60;;
58926;SDS011;44712;52.530;9.760;2022-08-14T02:13:13;16.45;;;12.77;;
58926;SDS011;44712;52.530;9.760;2022-08-14T02:15:42;14.77;;;12.73;;
58926;SDS011;44712;52.530;9.760;2022-08-14T02:18:11;14.75;;;11.75;;
58926;SDS011;44712;52.530;9.760;2022-08-14T02:20:41;16.55;;;12.93;;
58926;SDS011;44712;52.530;9.760;2022-08-14T02:23:07;16.35;;;13.10;;
58926;SDS011;44712;52.530;9.760;2022-08-14T02:25:36;17.58;;;12.93;;
58926;SDS011;44712;52.530;9.760;2022-08-14T02:28:05;16.80;;;13.00;;
58926;SDS011;44712;52.530;9.760;2022-08-14T02:30:52;17.20;;;12.60;;
58926;SDS011;44712;52.530;9.760;2022-08-14T02:33:19;17.98;;;13.32;;
58926;SDS011;44712;52.530;9.760;2022-08-14T02:35:47;18.52;;;13.43;;
58926;SDS011;44712;52.530;9.760;2022-08-14T02:38:23;18.80;;;13.40;;
58926;SDS011;44712;52.530;9.760;2022-08-14T02:40:59;15.70;;;12.40;;
58926;SDS011;44712;52.530;9.760;2022-08-14T02:43:26;16.00;;;13.07;;
58926;SDS011;44712;52.530;9.760;2022-08-14T02:46:11;15.88;;;13.00;;
58926;SDS011;44712;52.530;9.760;2022-08-14T02:48:41;17.20;;;13.68;;
58926;SDS011;44712;52.530;9.760;2022-08-14T02:51:28;16.63;;;13.80;;
58926;SDS011;44712;52.530;9.760;2022-08-14T02:53:56;18.80;;;13.50;;
58926;SDS011;44712;52.530;9.760;2022-08-14T02:56:23;18.23;;;13.57;;
58926;SDS011;44712;52.530;9.760;2022-08-14T02:59:12;16.23;;;12.80;;
58926;SDS011;44712;52.530;9.760;2022-08-14T03:01:41;15.75;;;13.15;;
58926;SDS011;44712;52.530;9.760;2022-08-14T03:04:20;17.67;;;13.60;;
58926;SDS011;44712;52.530;9.760;2022-08-14T03:06:52;15.98;;;13.73;;
58926;SDS011;44712;52.530;9.760;2022-08-14T03:09:24;19.27;;;13.63;;
58926;SDS011;44712;52.530;9.760;2022-08-14T03:12:11;18.13;;;13.45;;
58926;SDS011;44712;52.530;9.760;2022-08-14T03:14:52;20.50;;;13.70;;
58926;SDS011;44712;52.530;9.760;2022-08-14T03:17:19;20.27;;;14.57;;
58926;SDS011;44712;52.530;9.760;2022-08-14T03:19:48;18.17;;;13.68;;
58926;SDS011;44712;52.530;9.760;2022-08-14T03:22:16;23.35;;;13.65;;
58926;SDS011;44712;52.530;9.760;2022-08-14T03:24:43;18.58;;;13.68;;
58926;SDS011;44712;52.530;9.760;2022-08-14T03:27:10;17.85;;;13.45;;
58926;SDS011;44712;52.530;9.760;2022-08-14T03:29:41;16.90;;;14.07;;
58926;SDS011;44712;52.530;9.760;2022-08-14T03:32:08;25.85;;;14.77;;
58926;SDS011;44712;52.530;9.760;2022-08-14T03:34:36;16.80;;;13.82;;
58926;SDS011;44712;52.530;9.760;2022-08-14T03:37:21;18.38;;;14.60;;
58926;SDS011;44712;52.530;9.760;2022-08-14T03:40:07;17.92;;;14.10;;
58926;SDS011;44712;52.530;9.760;2022-08-14T03:42:44;15.65;;;12.90;;
58926;SDS011;44712;52.530;9.760;2022-08-14T03:45:11;17.20;;;13.48;;
58926;SDS011;44712;52.530;9.760;2022-08-14T03:47:59;24.52;;;14.05;;
58926;SDS011;44712;52.530;9.760;2022-08-14T03:50:36;18.85;;;14.45;;
58926;SDS011;44712;52.530;9.760;2022-08-14T03:53:02;19.65;;;14.77;;
58926;SDS011;44712;52.530;9.760;2022-08-14T03:55:30;19.52;;;15.32;;
58926;SDS011;44712;52.530;9.760;2022-08-14T03:57:57;22.13;;;14.45;;
58926;SDS011;44712;52.530;9.760;2022-08-14T04:00:26;21.52;;;15.00;;
58926;SDS011;44712;52.530;9.760;2022-08-14T04:03:10;19.95;;;15.32;;
58926;SDS011;44712;52.530;9.760;2022-08-14T04:05:46;20.55;;;15.05;;
58926;SDS011;44712;52.530;9.760;2022-08-14T04:08:14;20.50;;;14.93;;
58926;SDS011;44712;52.530;9.760;2022-08-14T04:10:58;19.35;;;14.63;;
58926;SDS011;44712;52.530;9.760;2022-08-14T04:13:28;22.55;;;15.55;;
58926;SDS011;44712;52.530;9.760;2022-08-14T04:15:59;19.35;;;14.30;;
58926;SDS011;44712;52.530;9.760;2022-08-14T04:18:31;19.60;;;15.15;;
58926;SDS011;44712;52.530;9.760;2022-08-14T04:21:00;20.67;;;15.18;;
58926;SDS011;44712;52.530;9.760;2022-08-14T04:23:29;23.55;;;15.82;;
58926;SDS011;44712;52.530;9.760;2022-08-14T04:26:02;20.65;;;15.05;;
58926;SDS011;44712;52.530;9.760;2022-08-14T04:28:40;22.35;;;15.32;;
58926;SDS011;44712;52.530;9.760;2022-08-14T04:31:32;19.48;;;15.05;;
58926;SDS011;44712;52.530;9.760;2022-08-14T04:34:20;19.63;;;15.02;;
58926;SDS011;44712;52.530;9.760;2022-08-14T04:36:53;22.60;;;16.58;;
58926;SDS011;44712;52.530;9.760;2022-08-14T04:39:42;22.38;;;15.77;;
58926;SDS011;44712;52.530;9.760;2022-08-14T04:42:28;24.20;;;15.77;;
58926;SDS011;44712;52.530;9.760;2022-08-14T04:45:26;19.65;;;16.88;;
58926;SDS011;44712;52.530;9.760;2022-08-14T04:48:07;20.27;;;15.23;;
58926;SDS011;44712;52.530;9.760;2022-08-14T04:53:55;20.20;;;15.68;;
58926;SDS011;44712;52.530;9.760;2022-08-14T04:56:22;21.40;;;15.82;;
58926;SDS011;44712;52.530;9.760;2022-08-14T04:59:00;22.02;;;15.40;;
58926;SDS011;44712;52.530;9.760;2022-08-14T05:01:36;19.52;;;16.17;;
58926;SDS011;44712;52.530;9.760;2022-08-14T05:04:15;20.33;;;14.73;;
58926;SDS011;44712;52.530;9.760;2022-08-14T05:06:50;19.90;;;14.85;;
58926;SDS011;44712;52.530;9.760;2022-08-14T05:09:20;19.70;;;15.27;;
58926;SDS011;44712;52.530;9.760;2022-08-14T05:11:48;22.17;;;16.20;;
58926;SDS011;44712;52.530;9.760;2022-08-14T05:14:17;21.45;;;15.90;;
58926;SDS011;44712;52.530;9.760;2022-08-14T05:17:07;19.55;;;15.55;;
58926;SDS011;44712;52.530;9.760;2022-08-14T05:19:36;24.23;;;15.90;;
58926;SDS011;44712;52.530;9.760;2022-08-14T05:22:23;19.33;;;15.55;;
58926;SDS011;44712;52.530;9.760;2022-08-14T05:24:52;21.20;;;15.75;;
58926;SDS011;44712;52.530;9.760;2022-08-14T05:27:19;18.20;;;14.85;;
58926;SDS011;44712;52.530;9.760;2022-08-14T05:29:52;22.50;;;15.07;;
58926;SDS011;44712;52.530;9.760;2022-08-14T05:32:23;24.50;;;16.88;;
58926;SDS011;44712;52.530;9.760;2022-08-14T05:34:54;20.70;;;15.07;;
58926;SDS011;44712;52.530;9.760;2022-08-14T05:37:24;20.88;;;15.57;;
58926;SDS011;44712;52.530;9.760;2022-08-14T05:39:53;19.42;;;15.63;;
58926;SDS011;44712;52.530;9.760;2022-08-14T05:42:20;22.08;;;14.80;;
58926;SDS011;44712;52.530;9.760;2022-08-14T05:44:57;24.63;;;16.98;;
58926;SDS011;44712;52.530;9.760;2022-08-14T05:47:25;23.98;;;16.52;;
58926;SDS011;44712;52.530;9.760;2022-08-14T05:49:55;20.55;;;16.23;;
58926;SDS011;44712;52.530;9.760;2022-08-14T05:52:23;20.58;;;15.45;;
58926;SDS011;44712;52.530;9.760;2022-08-14T05:55:04;18.27;;;13.73;;
58926;SDS011;44712;52.530;9.760;2022-08-14T05:57:33;17.73;;;13.88;;
58926;SDS011;44712;52.530;9.760;2022-08-14T06:00:10;20.45;;;15.00;;
58926;SDS011;44712;52.530;9.760;2022-08-14T06:02:58;19.60;;;14.50;;
58926;SDS011;44712;52.530;9.760;2022-08-14T06:05:32;19.13;;;14.45;;
58926;SDS011;44712;52.530;9.760;2022-08-14T06:08:00;16.40;;;13.98;;
58926;SDS011;44712;52.530;9.760;2022-08-14T06:13:00;17.42;;;13.75;;
58926;SDS011;44712;52.530;9.760;2022-08-14T06:15:28;18.42;;;13.25;;
58926;SDS011;44712;52.530;9.760;2022-08-14T06:17:56;19.15;;;14.00;;
58926;SDS011;44712;52.530;9.760;2022-08-14T06:20:25;17.30;;;13.13;;
58926;SDS011;44712;52.530;9.760;2022-08-14T06:22:54;20.13;;;14.93;;
58926;SDS011;44712;52.530;9.760;2022-08-14T06:25:22;16.17;;;12.73;;
58926;SDS011;44712;52.530;9.760;2022-08-14T06:27:50;18.40;;;13.05;;
58926;SDS011;44712;52.530;9.760;2022-08-14T06:30:19;16.85;;;12.95;;
58926;SDS011;44712;52.530;9.760;2022-08-14T06:32:48;15.48;;;12.70;;
58926;SDS011;44712;52.530;9.760;2022-08-14T06:35:18;16.27;;;12.88;;
58926;SDS011;44712;52.530;9.760;2022-08-14T06:37:49;14.38;;;12.25;;
58926;SDS011;44712;52.530;9.760;2022-08-14T06:40:23;14.95;;;12.35;;
58926;SDS011;44712;52.530;9.760;2022-08-14T06:42:57;14.93;;;12.10;;
58926;SDS011;44712;52.530;9.760;2022-08-14T06:45:30;15.52;;;12.23;;
58926;SDS011;44712;52.530;9.760;2022-08-14T06:47:57;15.07;;;12.25;;
58926;SDS011;44712;52.530;9.760;2022-08-14T06:50:26;13.07;;;10.80;;
58926;SDS011;44712;52.530;9.760;2022-08-14T06:52:58;14.13;;;11.98;;
58926;SDS011;44712;52.530;9.760;2022-08-14T06:55:26;12.27;;;10.77;;
58926;SDS011;44712;52.530;9.760;2022-08-14T06:57:55;14.77;;;11.38;;
58926;SDS011;44712;52.530;9.760;2022-08-14T07:00:26;12.80;;;10.90;;
58926;SDS011;44712;52.530;9.760;2022-08-14T07:02:57;12.98;;;10.32;;
58926;SDS011;44712;52.530;9.760;2022-08-14T07:05:43;12.45;;;11.00;;
58926;SDS011;44712;52.530;9.760;2022-08-14T07:10:55;11.23;;;10.10;;
58926;SDS011;44712;52.530;9.760;2022-08-14T07:13:25;12.25;;;10.23;;
58926;SDS011;44712;52.530;9.760;2022-08-14T07:15:53;14.18;;;9.50;;
58926;SDS011;44712;52.530;9.760;2022-08-14T07:18:30;12.32;;;9.82;;
58926;SDS011;44712;52.530;9.760;2022-08-14T07:20:59;11.75;;;10.07;;
58926;SDS011;44712;52.530;9.760;2022-08-14T07:23:26;10.55;;;9.45;;
58926;SDS011;44712;52.530;9.760;2022-08-14T07:25:57;11.18;;;9.70;;
58926;SDS011;44712;52.530;9.760;2022-08-14T07:28:28;9.98;;;8.98;;
58926;SDS011;44712;52.530;9.760;2022-08-14T07:31:02;10.40;;;9.40;;
58926;SDS011;44712;52.530;9.760;2022-08-14T07:33:33;10.40;;;8.93;;
58926;SDS011;44712;52.530;9.760;2022-08-14T07:36:08;11.27;;;9.85;;
58926;SDS011;44712;52.530;9.760;2022-08-14T07:38:54;10.45;;;9.05;;
58926;SDS011;44712;52.530;9.760;2022-08-14T07:41:21;10.55;;;9.35;;
58926;SDS011;44712;52.530;9.760;2022-08-14T07:43:48;10.68;;;9.68;;
58926;SDS011;44712;52.530;9.760;2022-08-14T07:46:23;9.82;;;8.93;;
58926;SDS011;44712;52.530;9.760;2022-08-14T07:48:57;14.43;;;10.10;;
58926;SDS011;44712;52.530;9.760;2022-08-14T07:51:24;9.50;;;8.68;;
58926;SDS011;44712;52.530;9.760;2022-08-14T07:54:00;10.63;;;9.63;;
58926;SDS011;44712;52.530;9.760;2022-08-14T07:56:28;10.20;;;9.20;;
58926;SDS011;44712;52.530;9.760;2022-08-14T07:59:13;12.10;;;9.68;;
58926;SDS011;44712;52.530;9.760;2022-08-14T08:01:42;10.45;;;9.45;;
58926;SDS011;44712;52.530;9.760;2022-08-14T08:04:19;11.00;;;9.82;;
58926;SDS011;44712;52.530;9.760;2022-08-14T08:06:51;11.25;;;9.30;;
58926;SDS011;44712;52.530;9.760;2022-08-14T08:09:20;11.15;;;9.63;;
58926;SDS011;44712;52.530;9.760;2022-08-14T08:11:58;10.55;;;9.45;;
58926;SDS011;44712;52.530;9.760;2022-08-14T08:17:22;11.30;;;10.10;;
58926;SDS011;44712;52.530;9.760;2022-08-14T08:19:49;12.00;;;10.30;;
58926;SDS011;44712;52.530;9.760;2022-08-14T08:22:17;11.27;;;10.10;;
58926;SDS011;44712;52.530;9.760;2022-08-14T08:24:46;11.05;;;10.00;;
58926;SDS011;44712;52.530;9.760;2022-08-14T08:27:16;9.60;;;8.70;;
58926;SDS011;44712;52.530;9.760;2022-08-14T08:29:46;10.45;;;9.35;;
58926;SDS011;44712;52.530;9.760;2022-08-14T08:32:17;11.38;;;10.25;;
58926;SDS011;44712;52.530;9.760;2022-08-14T08:34:44;11.75;;;10.50;;
58926;SDS011;44712;52.530;9.760;2022-08-14T08:37:12;11.63;;;10.30;;
58926;SDS011;44712;52.530;9.760;2022-08-14T08:39:41;11.43;;;10.32;;
58926;SDS011;44712;52.530;9.760;2022-08-14T08:42:29;10.68;;;9.57;;
58926;SDS011;44712;52.530;9.760;2022-08-14T08:45:13;11.10;;;10.10;;
58926;SDS011;44712;52.530;9.760;2022-08-14T08:47:45;11.05;;;9.95;;
58926;SDS011;44712;52.530;9.760;2022-08-14T08:50:23;10.82;;;9.85;;
58926;SDS011;44712;52.530;9.760;2022-08-14T08:52:58;11.10;;;10.00;;
58926;SDS011;44712;52.530;9.760;2022-08-14T08:55:33;11.05;;;9.93;;
58926;SDS011;44712;52.530;9.760;2022-08-14T08:58:03;10.88;;;9.88;;
58926;SDS011;44712;52.530;9.760;2022-08-14T09:00:48;11.27;;;10.17;;
58926;SDS011;44712;52.530;9.760;2022-08-14T09:03:21;12.05;;;9.82;;
58926;SDS011;44712;52.530;9.760;2022-08-14T09:05:54;11.80;;;9.50;;
58926;SDS011;44712;52.530;9.760;2022-08-14T09:08:28;11.52;;;9.93;;
58926;SDS011;44712;52.530;9.760;2022-08-14T09:11:03;11.88;;;9.35;;
58926;SDS011;44712;52.530;9.760;2022-08-14T09:13:50;11.82;;;9.65;;
58926;SDS011;44712;52.530;9.760;2022-08-14T09:16:19;10.60;;;9.50;;
58926;SDS011;44712;52.530;9.760;2022-08-14T09:18:50;10.82;;;9.60;;
58926;SDS011;44712;52.530;9.760;2022-08-14T09:21:19;10.13;;;9.20;;
58926;SDS011;44712;52.530;9.760;2022-08-14T09:23:53;10.10;;;9.10;;
58926;SDS011;44712;52.530;9.760;2022-08-14T09:26:42;10.13;;;9.13;;
58926;SDS011;44712;52.530;9.760;2022-08-14T09:29:16;9.95;;;8.85;;
58926;SDS011;44712;52.530;9.760;2022-08-14T09:31:53;9.75;;;8.75;;
58926;SDS011;44712;52.530;9.760;2022-08-14T09:35:11;16.83;;;8.98;;
58926;SDS011;44712;52.530;9.760;2022-08-14T09:40:58;9.15;;;8.35;;
58926;SDS011;44712;52.530;9.760;2022-08-14T09:43:42;9.82;;;8.82;;
58926;SDS011;44712;52.530;9.760;2022-08-14T09:46:19;9.55;;;8.65;;
58926;SDS011;44712;52.530;9.760;2022-08-14T09:48:58;9.48;;;8.57;;
58926;SDS011;44712;52.530;9.760;2022-08-14T09:51:27;10.57;;;8.32;;
58926;SDS011;44712;52.530;9.760;2022-08-14T09:56:50;10.63;;;8.68;;
58926;SDS011;44712;52.530;9.760;2022-08-14T09:59:24;10.00;;;8.98;;
58926;SDS011;44712;52.530;9.760;2022-08-14T10:01:53;10.05;;;8.57;;
58926;SDS011;44712;52.530;9.760;2022-08-14T10:04:26;9.50;;;8.48;;
58926;SDS011;44712;52.530;9.760;2022-08-14T10:07:06;8.40;;;7.50;;
58926;SDS011;44712;52.530;9.760;2022-08-14T10:09:44;9.00;;;8.10;;
58926;SDS011;44712;52.530;9.760;2022-08-14T10:12:40;8.95;;;8.05;;
58926;SDS011;44712;52.530;9.760;2022-08-14T10:15:13;8.65;;;7.68;;
58926;SDS011;44712;52.530;9.760;2022-08-14T10:17:49;9.02;;;8.20;;
58926;SDS011;44712;52.530;9.760;2022-08-14T10:20:32;11.43;;;8.63;;
58926;SDS011;44712;52.530;9.760;2022-08-14T10:23:11;9.85;;;7.72;;
58926;SDS011;44712;52.530;9.760;2022-08-14T10:25:45;9.35;;;8.45;;
58926;SDS011;44712;52.530;9.760;2022-08-14T10:28:20;9.07;;;7.72;;
58926;SDS011;44712;52.530;9.760;2022-08-14T10:31:18;9.45;;;8.55;;
58926;SDS011;44712;52.530;9.760;2022-08-14T10:34:06;9.73;;;8.05;;
58926;SDS011;44712;52.530;9.760;2022-08-14T10:39:20;9.68;;;8.77;;
58926;SDS011;44712;52.530;9.760;2022-08-14T10:42:02;8.90;;;8.02;;
58926;SDS011;44712;52.530;9.760;2022-08-14T10:44:44;9.73;;;8.63;;
58926;SDS011;44712;52.530;9.760;2022-08-14T10:47:17;9.35;;;8.48;;
58926;SDS011;44712;52.530;9.760;2022-08-14T10:50:05;9.98;;;8.88;;
58926;SDS011;44712;52.530;9.760;2022-08-14T10:52:37;9.05;;;8.18;;
58926;SDS011;44712;52.530;9.760;2022-08-14T10:55:14;9.52;;;8.52;;
58926;SDS011;44712;52.530;9.760;2022-08-14T10:57:50;9.95;;;9.00;;
58926;SDS011;44712;52.530;9.760;2022-08-14T11:03:04;10.40;;;9.05;;
58926;SDS011;44712;52.530;9.760;2022-08-14T11:05:40;10.85;;;8.77;;
58926;SDS011;44712;52.530;9.760;2022-08-14T11:08:09;9.65;;;8.65;;
58926;SDS011;44712;52.530;9.760;2022-08-14T11:13:08;10.20;;;9.15;;
58926;SDS011;44712;52.530;9.760;2022-08-14T11:15:35;12.25;;;8.73;;
58926;SDS011;44712;52.530;9.760;2022-08-14T11:18:06;10.20;;;8.65;;
58926;SDS011;44712;52.530;9.760;2022-08-14T11:20:47;12.43;;;8.60;;
58926;SDS011;44712;52.530;9.760;2022-08-14T11:23:20;9.52;;;8.38;;
58926;SDS011;44712;52.530;9.760;2022-08-14T11:26:04;9.05;;;8.20;;
58926;SDS011;44712;52.530;9.760;2022-08-14T11:28:33;10.23;;;8.38;;
58926;SDS011;44712;52.530;9.760;2022-08-14T11:31:14;11.32;;;8.40;;
58926;SDS011;44712;52.530;9.760;2022-08-14T11:33:47;9.15;;;8.25;;
58926;SDS011;44712;52.530;9.760;2022-08-14T11:36:20;9.30;;;8.40;;
58926;SDS011;44712;52.530;9.760;2022-08-14T11:38:48;9.93;;;8.77;;
58926;SDS011;44712;52.530;9.760;2022-08-14T11:41:19;11.32;;;8.65;;
58926;SDS011;44712;52.530;9.760;2022-08-14T11:43:47;9.40;;;8.55;;
58926;SDS011;44712;52.530;9.760;2022-08-14T11:46:24;9.38;;;8.38;;
58926;SDS011;44712;52.530;9.760;2022-08-14T11:49:03;8.88;;;7.93;;
58926;SDS011;44712;52.530;9.760;2022-08-14T11:51:31;8.23;;;7.32;;
58926;SDS011;44712;52.530;9.760;2022-08-14T11:54:19;9.27;;;7.05;;
58926;SDS011;44712;52.530;9.760;2022-08-14T11:57:00;10.05;;;7.10;;
58926;SDS011;44712;52.530;9.760;2022-08-14T11:59:29;10.98;;;7.65;;
58926;SDS011;44712;52.530;9.760;2022-08-14T12:02:09;8.00;;;7.20;;
58926;SDS011;44712;52.530;9.760;2022-08-14T12:04:57;8.57;;;6.85;;
58926;SDS011;44712;52.530;9.760;2022-08-14T12:07:29;11.98;;;8.18;;
58926;SDS011;44712;52.530;9.760;2022-08-14T12:09:57;9.52;;;7.28;;
58926;SDS011;44712;52.530;9.760;2022-08-14T12:12:27;8.48;;;7.28;;
58926;SDS011;44712;52.530;9.760;2022-08-14T12:15:12;9.27;;;6.95;;
58926;SDS011;44712;52.530;9.760;2022-08-14T12:17:46;8.65;;;6.90;;
58926;SDS011;44712;52.530;9.760;2022-08-14T12:20:27;8.65;;;7.38;;
58926;SDS011;44712;52.530;9.760;2022-08-14T12:23:21;7.78;;;7.03;;
58926;SDS011;44712;52.530;9.760;2022-08-14T12:26:01;7.93;;;6.93;;
58926;SDS011;44712;52.530;9.760;2022-08-14T12:28:50;7.07;;;6.30;;
58926;SDS011;44712;52.530;9.760;2022-08-14T12:34:11;8.85;;;7.15;;
58926;SDS011;44712;52.530;9.760;2022-08-14T12:36:46;9.30;;;7.35;;
58926;SDS011;44712;52.530;9.760;2022-08-14T12:39:18;8.18;;;7.35;;
58926;SDS011;44712;52.530;9.760;2022-08-14T12:41:50;8.48;;;7.07;;
58926;SDS011;44712;52.530;9.760;2022-08-14T12:44:31;9.48;;;7.13;;
58926;SDS011;44712;52.530;9.760;2022-08-14T12:47:01;8.55;;;7.75;;
58926;SDS011;44712;52.530;9.760;2022-08-14T12:49:32;7.90;;;6.90;;
58926;SDS011;44712;52.530;9.760;2022-08-14T12:52:00;7.50;;;6.65;;
58926;SDS011;44712;52.530;9.760;2022-08-14T12:54:28;8.00;;;7.20;;
58926;SDS011;44712;52.530;9.760;2022-08-14T12:57:16;7.35;;;6.75;;
58926;SDS011;44712;52.530;9.760;2022-08-14T12:59:46;7.82;;;6.97;;
58926;SDS011;44712;52.530;9.760;2022-08-14T13:02:21;9.25;;;7.10;;
58926;SDS011;44712;52.530;9.760;2022-08-14T13:04:55;8.23;;;7.43;;
58926;SDS011;44712;52.530;9.760;2022-08-14T13:07:26;8.52;;;7.50;;
58926;SDS011;44712;52.530;9.760;2022-08-14T13:09:58;10.05;;;7.60;;
58926;SDS011;44712;52.530;9.760;2022-08-14T13:12:46;10.68;;;8.05;;
58926;SDS011;44712;52.530;9.760;2022-08-14T13:15:34;8.75;;;7.70;;
58926;SDS011;44712;52.530;9.760;2022-08-14T13:18:02;8.70;;;7.75;;
58926;SDS011;44712;52.530;9.760;2022-08-14T13:20:30;8.98;;;7.80;;
58926;SDS011;44712;52.530;9.760;2022-08-14T13:22:58;9.65;;;7.78;;
58926;SDS011;44712;52.530;9.760;2022-08-14T13:25:28;8.90;;;8.07;;
58926;SDS011;44712;52.530;9.760;2022-08-14T13:27:56;9.23;;;6.80;;
58926;SDS011;44712;52.530;9.760;2022-08-14T13:30:24;7.57;;;6.88;;
58926;SDS011;44712;52.530;9.760;2022-08-14T13:32:52;7.45;;;6.70;;
58926;SDS011;44712;52.530;9.760;2022-08-14T13:35:24;7.38;;;6.60;;
58926;SDS011;44712;52.530;9.760;2022-08-14T13:37:53;7.72;;;6.93;;
58926;SDS011;44712;52.530;9.760;2022-08-14T13:40:22;7.63;;;6.90;;
58926;SDS011;44712;52.530;9.760;2022-08-14T13:42:52;8.20;;;7.40;;
58926;SDS011;44712;52.530;9.760;2022-08-14T13:45:23;8.55;;;7.32;;
58926;SDS011;44712;52.530;9.760;2022-08-14T13:48:13;9.40;;;8.13;;
58926;SDS011;44712;52.530;9.760;2022-08-14T13:50:59;8.30;;;7.50;;
58926;SDS011;44712;52.530;9.760;2022-08-14T13:53:29;8.95;;;8.05;;
58926;SDS011;44712;52.530;9.760;2022-08-14T13:56:06;8.93;;;7.63;;
58926;SDS011;44712;52.530;9.760;2022-08-14T13:58:51;9.95;;;7.78;;
58926;SDS011;44712;52.530;9.760;2022-08-14T14:01:25;8.32;;;7.53;;
58926;SDS011;44712;52.530;9.760;2022-08-14T14:03:53;9.48;;;7.40;;
58926;SDS011;44712;52.530;9.760;2022-08-14T14:06:24;8.98;;;7.80;;
58926;SDS011;44712;52.530;9.760;2022-08-14T14:08:55;9.20;;;8.20;;
58926;SDS011;44712;52.530;9.760;2022-08-14T14:11:29;9.60;;;8.07;;
58926;SDS011;44712;52.530;9.760;2022-08-14T14:13:56;8.50;;;7.70;;
58926;SDS011;44712;52.530;9.760;2022-08-14T14:16:26;8.52;;;7.72;;
58926;SDS011;44712;52.530;9.760;2022-08-14T14:18:56;8.82;;;7.82;;
58926;SDS011;44712;52.530;9.760;2022-08-14T14:21:35;8.95;;;8.05;;
58926;SDS011;44712;52.530;9.760;2022-08-14T14:24:06;8.52;;;7.28;;
58926;SDS011;44712;52.530;9.760;2022-08-14T14:26:42;8.13;;;7.13;;
58926;SDS011;44712;52.530;9.760;2022-08-14T14:29:11;8.82;;;7.85;;
58926;SDS011;44712;52.530;9.760;2022-08-14T14:31:41;10.57;;;7.97;;
58926;SDS011;44712;52.530;9.760;2022-08-14T14:34:12;8.63;;;7.87;;
58926;SDS011;44712;52.530;9.760;2022-08-14T14:36:56;8.63;;;7.82;;
58926;SDS011;44712;52.530;9.760;2022-08-14T14:39:28;8.32;;;7.45;;
58926;SDS011;44712;52.530;9.760;2022-08-14T14:42:04;8.93;;;7.50;;
58926;SDS011;44712;52.530;9.760;2022-08-14T14:44:32;8.68;;;7.90;;
58926;SDS011;44712;52.530;9.760;2022-08-14T14:47:06;8.27;;;7.57;;
58926;SDS011;44712;52.530;9.760;2022-08-14T14:49:43;8.20;;;7.40;;
58926;SDS011;44712;52.530;9.760;2022-08-14T14:52:21;8.80;;;7.93;;
58926;SDS011;44712;52.530;9.760;2022-08-14T14:54:54;8.63;;;7.72;;
58926;SDS011;44712;52.530;9.760;2022-08-14T14:57:24;8.48;;;7.65;;
58926;SDS011;44712;52.530;9.760;2022-08-14T15:00:05;7.78;;;7.07;;
58926;SDS011;44712;52.530;9.760;2022-08-14T15:02:46;8.35;;;6.78;;
58926;SDS011;44712;52.530;9.760;2022-08-14T15:05:17;7.47;;;6.88;;
58926;SDS011;44712;52.530;9.760;2022-08-14T15:07:46;7.65;;;6.88;;
58926;SDS011;44712;52.530;9.760;2022-08-14T15:10:18;8.13;;;7.40;;
58926;SDS011;44712;52.530;9.760;2022-08-14T15:12:55;8.43;;;7.47;;
58926;SDS011;44712;52.530;9.760;2022-08-14T15:15:30;8.45;;;7.60;;
58926;SDS011;44712;52.530;9.760;2022-08-14T15:18:05;8.00;;;7.30;;
58926;SDS011;44712;52.530;9.760;2022-08-14T15:20:53;10.63;;;7.70;;
58926;SDS011;44712;52.530;9.760;2022-08-14T15:23:21;9.13;;;7.90;;
58926;SDS011;44712;52.530;9.760;2022-08-14T15:25:49;8.90;;;8.18;;
58926;SDS011;44712;52.530;9.760;2022-08-14T15:28:18;8.77;;;7.95;;
58926;SDS011;44712;52.530;9.760;2022-08-14T15:30:47;9.23;;;8.32;;
58926;SDS011;44712;52.530;9.760;2022-08-14T15:33:24;9.05;;;8.25;;
58926;SDS011;44712;52.530;9.760;2022-08-14T15:36:29;8.95;;;8.02;;
58926;SDS011;44712;52.530;9.760;2022-08-14T15:38:56;9.38;;;7.22;;
58926;SDS011;44712;52.530;9.760;2022-08-14T15:41:25;9.43;;;8.30;;
58926;SDS011;44712;52.530;9.760;2022-08-14T15:43:59;9.02;;;8.13;;
58926;SDS011;44712;52.530;9.760;2022-08-14T15:46:28;8.80;;;7.75;;